createdAt,value
2023-12-14T00:01:34.368Z,99774.72
2023-12-14T00:04:03.787Z,99781.84
2023-12-14T00:06:31.807Z,99783.66
2023-12-14T00:08:59.774Z,99785.13
2023-12-14T00:11:27.726Z,99797.28
2023-12-14T00:13:56.951Z,99792.25
2023-12-14T00:16:24.851Z,99802.63
2023-12-14T00:18:52.779Z,99802.63
2023-12-14T00:21:20.711Z,99808.00
2023-12-14T00:23:48.660Z,99821.63
2023-12-14T00:26:18.374Z,99810.84
2023-12-14T00:28:46.264Z,99809.44
2023-12-14T00:31:15.479Z,99810.69
2023-12-14T00:33:43.488Z,99830.19
2023-12-14T00:36:11.589Z,99831.09
2023-12-14T00:38:40.820Z,99836.72
2023-12-14T00:41:08.776Z,99833.78
2023-12-14T00:43:37.296Z,99840.25
2023-12-14T00:46:05.562Z,99845.28
2023-12-14T00:48:34.783Z,99843.53
2023-12-14T00:51:02.776Z,99855.94
2023-12-14T00:53:30.658Z,99855.75
2023-12-14T00:55:58.620Z,99864.00
2023-12-14T00:58:26.543Z,99868.88
2023-12-14T01:00:55.451Z,99874.66
2023-12-14T01:03:23.955Z,99886.31
2023-12-14T01:05:53.307Z,99885.97
2023-12-14T01:08:21.204Z,99896.94
2023-12-14T01:10:49.164Z,99896.03
2023-12-14T01:13:17.065Z,99901.63
2023-12-14T01:15:45.034Z,99910.78
2023-12-14T01:18:14.038Z,99911.88
2023-12-14T01:20:42.858Z,99911.88
2023-12-14T01:23:12.182Z,99915.47
2023-12-14T01:25:40.177Z,99923.72
2023-12-14T01:28:09.497Z,99921.94
2023-12-14T01:30:37.501Z,99925.19
2023-12-14T01:33:06.161Z,99913.91
2023-12-14T01:35:34.258Z,99925.91
2023-12-14T01:38:02.154Z,99935.06
2023-12-14T01:40:31.648Z,99931.66
2023-12-14T01:43:08.940Z,99938.13
2023-12-14T01:45:36.880Z,99944.06
2023-12-14T01:48:05.165Z,99948.19
2023-12-14T01:50:33.088Z,99949.97
2023-12-14T01:53:00.988Z,99965.06
2023-12-14T01:55:28.996Z,99968.28
2023-12-14T01:57:58.322Z,99968.28
2023-12-14T02:00:30.483Z,99966.84
2023-12-14T02:02:58.410Z,99990.53
2023-12-14T02:05:26.389Z,99981.94
2023-12-14T02:07:54.382Z,99989.06
2023-12-14T02:10:22.334Z,99985.50
2023-12-14T02:12:50.189Z,99994.09
2023-12-14T02:15:19.401Z,100006.31
2023-12-14T02:17:47.450Z,100017.25
2023-12-14T02:20:15.388Z,100024.94
2023-12-14T02:22:53.778Z,100029.97
2023-12-14T02:25:22.175Z,100026.72
2023-12-14T02:27:50.365Z,100034.44
2023-12-14T02:30:18.326Z,100038.03
2023-12-14T02:32:46.274Z,100038.91
2023-12-14T02:35:14.213Z,100050.75
2023-12-14T02:37:42.579Z,100044.84
2023-12-14T02:40:12.367Z,100057.56
2023-12-14T02:42:40.280Z,100061.53
2023-12-14T02:45:09.574Z,100062.28
2023-12-14T02:47:37.596Z,100077.38
2023-12-14T02:50:06.298Z,100069.66
2023-12-14T02:52:34.570Z,100084.72
2023-12-14T02:55:02.791Z,100082.03
2023-12-14T02:57:32.070Z,100085.84
2023-12-14T02:59:59.934Z,100097.13
2023-12-14T03:02:27.811Z,100097.69
2023-12-14T03:04:55.904Z,100105.06
2023-12-14T03:07:23.825Z,100115.09
2023-12-14T03:09:51.704Z,100118.34
2023-12-14T03:12:19.580Z,100115.13
2023-12-14T03:14:48.798Z,100126.59
2023-12-14T03:17:17.493Z,100118.88
2023-12-14T03:19:45.476Z,100112.25
2023-12-14T03:22:13.786Z,100131.28
2023-12-14T03:24:41.733Z,100124.47
2023-12-14T03:27:09.601Z,100127.69
2023-12-14T03:29:37.507Z,100135.06
2023-12-14T03:32:07.325Z,100132.34
2023-12-14T03:34:35.414Z,100133.81
2023-12-14T03:37:03.336Z,100138.84
2023-12-14T03:39:31.300Z,100133.47
2023-12-14T03:41:59.236Z,100137.78
2023-12-14T03:44:27.125Z,100145.31
2023-12-14T03:46:55.511Z,100149.44
2023-12-14T03:49:25.069Z,100158.59
2023-12-14T03:51:52.926Z,100160.91
2023-12-14T03:54:20.834Z,100165.03
2023-12-14T03:56:48.767Z,100172.25
2023-12-14T03:59:16.867Z,100173.66
2023-12-14T04:01:44.769Z,100178.69
2023-12-14T04:04:12.649Z,100171.53
2023-12-14T04:06:41.859Z,100193.56
2023-12-14T04:09:09.727Z,100194.47
2023-12-14T04:11:37.645Z,100192.66
2023-12-14T04:14:05.639Z,100206.69
2023-12-14T04:16:33.646Z,100210.97
2023-12-14T04:19:01.881Z,100210.25
2023-12-14T04:21:29.802Z,100214.22
2023-12-14T04:23:59.042Z,100222.09
2023-12-14T04:26:27.074Z,100230.72
2023-12-14T04:28:54.947Z,100239.88
2023-12-14T04:31:22.834Z,100242.22
2023-12-14T04:33:50.800Z,100230.03
2023-12-14T04:36:18.737Z,100255.88
2023-12-14T04:38:47.618Z,100259.44
2023-12-14T04:41:17.061Z,100262.13
2023-12-14T04:43:45.074Z,100260.88
2023-12-14T04:46:13.038Z,100257.28
2023-12-14T04:48:41.041Z,100265.91
2023-12-14T04:51:13.490Z,100263.03
2023-12-14T04:53:41.562Z,100275.97
2023-12-14T04:56:12.275Z,100279.19
2023-12-14T04:58:41.973Z,100279.19
2023-12-14T05:01:09.932Z,100286.03
2023-12-14T05:03:38.230Z,100284.22
2023-12-14T05:06:06.600Z,100280.28
2023-12-14T05:08:34.541Z,100285.66
2023-12-14T05:11:02.502Z,100293.91
2023-12-14T05:13:30.431Z,100303.97
2023-12-14T05:15:59.677Z,100306.31
2023-12-14T05:18:28.050Z,100315.47
2023-12-14T05:20:57.002Z,100311.88
2023-12-14T05:23:25.887Z,100326.06
2023-12-14T05:25:53.821Z,100327.50
2023-12-14T05:28:21.796Z,100325.72
2023-12-14T05:30:49.743Z,100328.03
2023-12-14T05:33:19.159Z,100330.56
2023-12-14T05:35:47.125Z,100332.00
2023-12-14T05:38:15.122Z,100337.72
2023-12-14T05:40:43.387Z,100341.50
2023-12-14T05:43:11.959Z,100346.72
2023-12-14T05:45:39.848Z,100349.25
2023-12-14T05:48:07.838Z,100354.25
2023-12-14T05:50:37.300Z,100356.78
2023-12-14T05:53:05.321Z,100361.06
2023-12-14T05:55:33.299Z,100367.88
2023-12-14T05:58:01.217Z,100373.81
2023-12-14T06:00:29.186Z,100383.34
2023-12-14T06:02:57.368Z,100384.25
2023-12-14T06:05:25.378Z,100386.94
2023-12-14T06:07:54.875Z,100378.31
2023-12-14T06:10:23.376Z,100392.31
2023-12-14T06:12:51.298Z,100403.25
2023-12-14T06:15:19.182Z,100406.88
2023-12-14T06:17:47.151Z,100409.53
2023-12-14T06:20:15.146Z,100414.94
2023-12-14T06:22:43.837Z,100414.75
2023-12-14T06:25:13.159Z,100426.78
2023-12-14T06:27:41.534Z,100421.75
2023-12-14T06:30:11.862Z,100431.81
2023-12-14T06:32:40.072Z,100430.03
2023-12-14T06:35:08.708Z,100431.81
2023-12-14T06:37:36.789Z,100428.22
2023-12-14T06:40:05.437Z,100441.88
2023-12-14T06:42:34.951Z,100453.34
2023-12-14T06:45:04.231Z,100452.44
2023-12-14T06:47:32.361Z,100449.41
2023-12-14T06:50:00.514Z,100454.06
2023-12-14T06:52:28.457Z,100457.47
2023-12-14T06:54:56.358Z,100454.63
2023-12-14T06:57:26.191Z,100456.56
2023-12-14T06:59:56.938Z,100469.84
2023-12-14T07:02:24.826Z,100472.22
2023-12-14T07:04:52.859Z,100482.28
2023-12-14T07:07:20.763Z,100489.63
2023-12-14T07:09:49.260Z,100492.50
2023-12-14T07:12:17.195Z,100497.88
2023-12-14T07:14:45.142Z,100509.34
2023-12-14T07:17:14.493Z,100519.41
2023-12-14T07:19:42.517Z,100517.63
2023-12-14T07:22:10.459Z,100529.09
2023-12-14T07:24:44.910Z,100535.19
2023-12-14T07:27:20.323Z,100539.69
2023-12-14T07:29:48.249Z,100552.03
2023-12-14T07:32:17.829Z,100553.50
2023-12-14T07:34:46.431Z,100558.53
2023-12-14T07:37:14.429Z,100561.03
2023-12-14T07:39:42.365Z,100568.59
2023-12-14T07:42:10.315Z,100572.69
2023-12-14T07:44:38.661Z,100579.34
2023-12-14T07:47:06.745Z,100586.16
2023-12-14T07:49:36.029Z,100590.50
2023-12-14T07:52:04.119Z,100596.41
2023-12-14T07:54:32.008Z,100589.41
2023-12-14T07:56:59.968Z,100599.09
2023-12-14T07:59:27.999Z,100605.91
2023-12-14T08:01:56.003Z,100615.25
2023-12-14T08:04:24.570Z,100616.38
2023-12-14T08:06:53.853Z,100614.56
2023-12-14T08:09:21.770Z,100625.72
2023-12-14T08:11:49.681Z,100635.56
2023-12-14T08:14:17.629Z,100646.88
2023-12-14T08:16:45.590Z,100648.31
2023-12-14T08:19:14.067Z,100648.69
2023-12-14T08:21:42.116Z,100655.53
2023-12-14T08:24:11.372Z,100651.91
2023-12-14T08:26:39.246Z,100668.78
2023-12-14T08:29:07.178Z,100659.25
2023-12-14T08:31:35.123Z,100677.44
2023-12-14T08:34:04.303Z,100682.47
2023-12-14T08:36:32.669Z,100681.56
2023-12-14T08:39:00.644Z,100683.88
2023-12-14T08:41:29.867Z,100687.09
2023-12-14T08:43:57.764Z,100693.03
2023-12-14T08:46:25.725Z,100703.09
2023-12-14T08:48:53.775Z,100712.22
2023-12-14T08:51:22.225Z,100711.53
2023-12-14T08:53:50.131Z,100719.25
2023-12-14T08:56:18.163Z,100722.69
2023-12-14T08:58:47.584Z,100710.38
2023-12-14T09:01:21.497Z,100732.34
2023-12-14T09:03:50.289Z,100743.28
2023-12-14T09:06:18.474Z,100739.69
2023-12-14T09:08:46.411Z,100738.41
2023-12-14T09:11:16.203Z,100752.09
2023-12-14T09:13:44.298Z,100755.31
2023-12-14T09:16:13.677Z,100761.75
2023-12-14T09:18:41.714Z,100764.97
2023-12-14T09:21:09.730Z,100773.22
2023-12-14T09:23:37.669Z,100764.41
2023-12-14T09:26:05.973Z,100773.56
2023-12-14T09:28:33.963Z,100778.59
2023-12-14T09:31:03.562Z,100780.19
2023-12-14T09:33:34.005Z,100787.53
2023-12-14T09:36:02.003Z,100788.28
2023-12-14T09:38:29.919Z,100796.50
2023-12-14T09:40:57.852Z,100799.94
2023-12-14T09:43:25.780Z,100803.66
2023-12-14T09:45:53.755Z,100809.97
2023-12-14T09:48:21.719Z,100810.13
2023-12-14T09:50:50.964Z,100816.81
2023-12-14T09:53:19.482Z,100821.31
2023-12-14T09:55:48.410Z,100819.50
2023-12-14T09:58:16.930Z,100821.31
2023-12-14T10:00:45.017Z,100826.34
2023-12-14T10:03:26.157Z,100821.31
2023-12-14T10:05:55.762Z,100837.50
2023-12-14T10:08:24.038Z,100836.78
2023-12-14T10:10:54.058Z,100840.91
2023-12-14T10:13:37.234Z,100851.88
2023-12-14T10:16:05.608Z,100860.47
2023-12-14T10:18:35.560Z,100857.06
2023-12-14T10:21:05.258Z,100861.19
2023-12-14T10:23:33.113Z,100869.13
2023-12-14T10:26:01.042Z,100860.09
2023-12-14T10:28:29.143Z,100874.16
2023-12-14T10:30:57.096Z,100873.44
2023-12-14T10:33:25.092Z,100875.97
2023-12-14T10:35:53.002Z,100877.75
2023-12-14T10:38:22.401Z,100889.63
2023-12-14T10:40:50.356Z,100875.97
2023-12-14T10:43:42.518Z,100886.78
2023-12-14T10:46:07.710Z,100890.91
2023-12-14T10:48:36.975Z,100884.97
2023-12-14T10:51:06.597Z,100891.81
2023-12-14T10:53:35.859Z,100891.81
2023-12-14T10:56:07.583Z,100896.13
2023-12-14T10:58:47.571Z,100893.63
2023-12-14T11:01:16.436Z,100903.28
2023-12-14T11:03:45.119Z,100908.28
2023-12-14T11:06:34.115Z,100905.59
2023-12-14T11:09:07.265Z,100904.72
2023-12-14T11:11:42.207Z,100916.88
2023-12-14T11:14:10.919Z,100915.06
2023-12-14T11:16:45.561Z,100919.88
2023-12-14T11:19:30.837Z,100925.81
2023-12-14T11:22:16.582Z,100920.44
2023-12-14T11:24:54.678Z,100928.66
2023-12-14T11:27:27.956Z,100926.84
2023-12-14T11:29:56.149Z,100936.91
2023-12-14T11:32:24.124Z,100930.78
2023-12-14T11:34:52.092Z,100942.47
2023-12-14T11:37:21.414Z,100940.66
2023-12-14T11:39:54.483Z,100951.63
2023-12-14T11:42:22.374Z,100959.88
2023-12-14T11:44:50.287Z,100963.06
2023-12-14T11:47:18.199Z,100966.28
2023-12-14T11:49:46.121Z,100961.97
2023-12-14T11:52:14.006Z,100966.28
2023-12-14T11:54:41.881Z,100959.44
2023-12-14T11:57:11.093Z,100963.56
2023-12-14T11:59:39.192Z,100964.47
2023-12-14T12:02:07.067Z,100966.28
2023-12-14T12:04:35.013Z,100969.50
2023-12-14T12:07:03.848Z,100978.16
2023-12-14T12:09:38.904Z,100981.56
2023-12-14T12:12:11.598Z,100980.88
2023-12-14T12:14:39.670Z,100991.84
2023-12-14T12:17:07.704Z,100996.84
2023-12-14T12:19:36.369Z,101005.47
2023-12-14T12:22:04.617Z,101001.34
2023-12-14T12:24:34.562Z,100999.75
2023-12-14T12:27:03.196Z,101005.88
2023-12-14T12:29:32.782Z,101008.41
2023-12-14T12:32:00.733Z,101014.50
2023-12-14T12:34:28.954Z,101003.03
2023-12-14T12:36:58.763Z,101006.66
2023-12-14T12:39:26.744Z,101003.44
2023-12-14T12:41:54.671Z,101007.78
2023-12-14T12:44:22.609Z,101003.81
2023-12-14T12:47:01.670Z,101010.66
2023-12-14T12:49:36.006Z,101004.72
2023-12-14T12:52:04.236Z,100989.28
2023-12-14T12:54:33.237Z,101010.66
2023-12-14T12:57:01.093Z,101009.25
2023-12-14T12:59:28.982Z,101017.50
2023-12-14T13:01:58.384Z,101010.66
2023-12-14T13:04:27.320Z,101017.09
2023-12-14T13:06:56.201Z,101014.41
2023-12-14T13:09:24.168Z,101018.31
2023-12-14T13:11:52.622Z,101027.47
2023-12-14T13:14:20.553Z,101023.16
2023-12-14T13:16:49.103Z,101019.53
2023-12-14T13:19:18.493Z,101017.00
2023-12-14T13:21:46.407Z,101027.81
2023-12-14T13:24:14.358Z,101024.19
2023-12-14T13:26:42.325Z,101027.38
2023-12-14T13:29:11.267Z,101030.59
2023-12-14T13:31:39.734Z,101038.84
2023-12-14T13:34:07.809Z,101042.09
2023-12-14T13:36:37.134Z,101050.34
2023-12-14T13:39:05.356Z,101048.53
2023-12-14T13:41:45.263Z,101055.84
2023-12-14T13:44:18.340Z,101060.69
2023-12-14T13:46:46.414Z,101073.25
2023-12-14T13:49:14.449Z,101076.50
2023-12-14T13:51:43.767Z,101079.69
2023-12-14T13:54:11.735Z,101084.72
2023-12-14T13:56:39.749Z,101094.78
2023-12-14T13:59:07.782Z,101090.25
2023-12-14T14:01:35.689Z,101100.50
2023-12-14T14:04:03.660Z,101099.81
2023-12-14T14:06:31.973Z,101103.03
2023-12-14T14:09:01.285Z,101110.75
2023-12-14T14:11:29.436Z,101117.56
2023-12-14T14:13:57.488Z,101123.50
2023-12-14T14:16:25.750Z,101130.34
2023-12-14T14:18:53.843Z,101124.03
2023-12-14T14:21:22.281Z,101146.53
2023-12-14T14:23:50.352Z,101150.16
2023-12-14T14:26:19.590Z,101149.44
2023-12-14T14:28:47.691Z,101158.09
2023-12-14T14:31:15.954Z,101163.13
2023-12-14T14:33:45.069Z,101175.38
2023-12-14T14:36:13.172Z,101182.22
2023-12-14T14:38:41.182Z,101181.00
2023-12-14T14:41:09.309Z,101176.19
2023-12-14T14:43:38.589Z,101186.25
2023-12-14T14:46:06.703Z,101198.09
2023-12-14T14:48:35.244Z,101201.72
2023-12-14T14:51:03.886Z,101203.31
2023-12-14T14:53:32.550Z,101210.38
2023-12-14T14:56:00.499Z,101221.34
2023-12-14T14:58:28.437Z,101220.44
2023-12-14T15:00:58.403Z,101219.53
2023-12-14T15:03:26.327Z,101217.91
2023-12-14T15:05:54.512Z,101226.84
2023-12-14T15:08:22.492Z,101233.69
2023-12-14T15:10:50.465Z,101237.59
2023-12-14T15:13:18.437Z,101239.91
2023-12-14T15:15:46.899Z,101241.56
2023-12-14T15:18:16.235Z,101244.75
2023-12-14T15:20:44.176Z,101246.16
2023-12-14T15:23:12.099Z,101252.59
2023-12-14T15:25:39.965Z,101250.78
2023-12-14T15:28:08.445Z,101247.19
2023-12-14T15:30:36.403Z,101243.53
2023-12-14T15:33:06.371Z,101257.50
2023-12-14T15:35:36.255Z,101253.22
2023-12-14T15:38:04.483Z,101249.56
2023-12-14T15:40:32.430Z,101250.97
2023-12-14T15:43:00.322Z,101257.44
2023-12-14T15:45:28.718Z,101255.41
2023-12-14T15:47:56.684Z,101269.78
2023-12-14T15:50:24.746Z,101263.84
2023-12-14T15:52:54.068Z,101265.25
2023-12-14T15:55:23.217Z,101270.28
2023-12-14T15:57:51.318Z,101275.28
2023-12-14T16:00:20.273Z,101280.31
2023-12-14T16:02:48.824Z,101274.38
2023-12-14T16:05:16.898Z,101280.31
2023-12-14T16:07:46.450Z,101297.91
2023-12-14T16:10:16.035Z,101293.09
2023-12-14T16:12:43.957Z,101297.22
2023-12-14T16:15:12.126Z,101300.84
2023-12-14T16:17:40.047Z,101309.09
2023-12-14T16:20:09.913Z,101298.91
2023-12-14T16:22:38.635Z,101321.34
2023-12-14T16:25:07.436Z,101328.19
2023-12-14T16:27:36.745Z,101333.22
2023-12-14T16:30:06.078Z,101334.13
2023-12-14T16:32:34.598Z,101336.84
2023-12-14T16:35:02.747Z,101329.53
2023-12-14T16:37:32.031Z,101333.53
2023-12-14T16:40:00.028Z,101336.84
2023-12-14T16:42:27.998Z,101344.50
2023-12-14T16:44:57.307Z,101351.31
2023-12-14T16:47:25.204Z,101357.69
2023-12-14T16:49:53.122Z,101364.75
2023-12-14T16:52:21.041Z,101364.22
2023-12-14T16:54:49.140Z,101374.88
2023-12-14T16:57:17.389Z,101380.31
2023-12-14T16:59:45.488Z,101376.69
2023-12-14T17:02:15.564Z,101383.97
2023-12-14T17:04:44.791Z,101386.47
2023-12-14T17:07:12.775Z,101395.81
2023-12-14T17:09:40.690Z,101395.81
2023-12-14T17:12:08.719Z,101397.22
2023-12-14T17:14:36.629Z,101405.47
2023-12-14T17:17:04.962Z,101409.00
2023-12-14T17:19:34.214Z,101405.13
2023-12-14T17:22:02.412Z,101409.25
2023-12-14T17:24:30.335Z,101415.72
2023-12-14T17:26:59.147Z,101416.69
2023-12-14T17:29:27.263Z,101421.69
2023-12-14T17:31:55.336Z,101430.66
2023-12-14T17:34:24.794Z,101433.66
2023-12-14T17:36:54.310Z,101430.53
2023-12-14T17:39:22.196Z,101439.91
2023-12-14T17:41:50.125Z,101441.97
2023-12-14T17:44:18.019Z,101437.66
2023-12-14T17:46:46.154Z,101440.69
2023-12-14T17:49:14.091Z,101444.78
2023-12-14T17:51:42.730Z,101449.59
2023-12-14T17:54:12.848Z,101454.41
2023-12-14T17:56:40.741Z,101447.19
2023-12-14T17:59:08.733Z,101447.19
2023-12-14T18:01:36.685Z,101470.91
2023-12-14T18:04:04.598Z,101469.09
2023-12-14T18:06:32.589Z,101467.28
2023-12-14T18:09:00.595Z,101469.56
2023-12-14T18:11:29.844Z,101471.59
2023-12-14T18:13:57.823Z,101480.97
2023-12-14T18:16:25.724Z,101482.34
2023-12-14T18:18:55.072Z,101497.13
2023-12-14T18:21:23.011Z,101496.44
2023-12-14T18:23:50.896Z,101494.84
2023-12-14T18:26:18.835Z,101492.84
2023-12-14T18:28:48.098Z,101501.91
2023-12-14T18:31:16.021Z,101505.03
2023-12-14T18:33:47.262Z,101507.75
2023-12-14T18:36:15.391Z,101501.31
2023-12-14T18:38:43.305Z,101509.97
2023-12-14T18:41:11.173Z,101523.69
2023-12-14T18:43:39.797Z,101527.28
2023-12-14T18:46:09.310Z,101525.81
2023-12-14T18:48:38.371Z,101535.41
2023-12-14T18:51:06.916Z,101535.78
2023-12-14T18:53:34.901Z,101545.59
2023-12-14T18:56:03.457Z,101541.66
2023-12-14T18:58:31.385Z,101545.28
2023-12-14T19:01:01.230Z,101542.78
2023-12-14T19:03:30.711Z,101547.13
2023-12-14T19:05:58.770Z,101545.28
2023-12-14T19:08:27.321Z,101547.13
2023-12-14T19:10:55.436Z,101545.81
2023-12-14T19:13:23.349Z,101551.31
2023-12-14T19:15:51.211Z,101557.72
2023-12-14T19:18:19.096Z,101560.94
2023-12-14T19:20:48.599Z,101565.56
2023-12-14T19:23:16.946Z,101570.16
2023-12-14T19:25:45.025Z,101572.97
2023-12-14T19:28:13.471Z,101569.31
2023-12-14T19:30:41.471Z,101578.97
2023-12-14T19:33:10.629Z,101590.41
2023-12-14T19:35:38.588Z,101600.97
2023-12-14T19:38:07.818Z,101605.56
2023-12-14T19:40:35.713Z,101603.53
2023-12-14T19:43:03.641Z,101603.13
2023-12-14T19:45:31.629Z,101603.81
2023-12-14T19:48:01.990Z,101607.72
2023-12-14T19:50:29.956Z,101609.81
2023-12-14T19:52:57.912Z,101608.91
2023-12-14T19:55:27.164Z,101610.28
2023-12-14T19:57:55.048Z,101617.63
2023-12-14T20:00:23.201Z,101613.56
2023-12-14T20:02:51.148Z,101610.34
2023-12-14T20:05:19.156Z,101607.16
2023-12-14T20:07:47.479Z,101610.81
2023-12-14T20:10:15.533Z,101610.81
2023-12-14T20:12:44.982Z,101620.13
2023-12-14T20:15:13.892Z,101623.78
2023-12-14T20:17:42.124Z,101618.75
2023-12-14T20:20:11.178Z,101627.41
2023-12-14T20:22:39.134Z,101626.72
2023-12-14T20:25:08.639Z,101624.00
2023-12-14T20:27:36.859Z,101637.63
2023-12-14T20:30:07.461Z,101635.72
2023-12-14T20:32:35.484Z,101632.31
2023-12-14T20:35:03.591Z,101640.28
2023-12-14T20:37:31.516Z,101643.91
2023-12-14T20:39:59.494Z,101641.59
2023-12-14T20:42:27.360Z,101647.06
2023-12-14T20:44:55.248Z,101647.47
2023-12-14T20:47:24.701Z,101655.66
2023-12-14T20:49:52.770Z,101659.72
2023-12-14T20:52:20.748Z,101663.78
2023-12-14T20:54:48.698Z,101671.94
2023-12-14T20:57:16.580Z,101671.03
2023-12-14T20:59:44.478Z,101660.97
2023-12-14T21:02:12.388Z,101661.47
2023-12-14T21:04:41.753Z,101666.69
2023-12-14T21:07:09.976Z,101672.41
2023-12-14T21:09:37.975Z,101678.88
2023-12-14T21:12:06.097Z,101676.13
2023-12-14T21:14:34.037Z,101679.84
2023-12-14T21:17:02.004Z,101686.25
2023-12-14T21:19:30.044Z,101691.75
2023-12-14T21:22:00.141Z,101697.28
2023-12-14T21:24:29.762Z,101695.03
2023-12-14T21:27:11.597Z,101705.38
2023-12-14T21:29:39.725Z,101711.59
2023-12-14T21:32:08.547Z,101718.47
2023-12-14T21:34:36.485Z,101718.47
2023-12-14T21:37:05.773Z,101713.03
2023-12-14T21:39:33.622Z,101715.09
2023-12-14T21:42:01.521Z,101718.28
2023-12-14T21:44:31.356Z,101720.41
2023-12-14T21:46:59.362Z,101726.81
2023-12-14T21:49:27.341Z,101723.16
2023-12-14T21:51:55.299Z,101714.50
2023-12-14T21:54:24.574Z,101722.75
2023-12-14T21:56:52.455Z,101736.00
2023-12-14T21:59:20.457Z,101736.00
2023-12-14T22:01:48.449Z,101735.09
2023-12-14T22:04:16.349Z,101745.13
2023-12-14T22:06:44.205Z,101742.84
2023-12-14T22:09:13.071Z,101743.25
2023-12-14T22:11:42.281Z,101745.09
2023-12-14T22:14:10.206Z,101740.06
2023-12-14T22:16:38.107Z,101750.34
2023-12-14T22:19:06.063Z,101750.97
2023-12-14T22:21:34.008Z,101752.78
2023-12-14T22:24:01.919Z,101756.44
2023-12-14T22:26:29.853Z,101755.47
2023-12-14T22:28:59.179Z,101753.66
2023-12-14T22:31:27.071Z,101766.88
2023-12-14T22:33:55.055Z,101767.75
2023-12-14T22:36:22.974Z,101772.09
2023-12-14T22:38:50.938Z,101781.47
2023-12-14T22:41:19.140Z,101786.44
2023-12-14T22:43:47.017Z,101791.00
2023-12-14T22:46:16.312Z,101789.63
2023-12-14T22:48:44.347Z,101799.41
2023-12-14T22:51:19.139Z,101805.56
2023-12-14T22:53:47.291Z,101804.44
2023-12-14T22:56:21.692Z,101801.41
2023-12-14T22:58:49.732Z,101795.22
2023-12-14T23:01:30.567Z,101800.94
2023-12-14T23:03:58.620Z,101798.22
2023-12-14T23:06:26.611Z,101804.84
2023-12-14T23:08:54.523Z,101801.22
2023-12-14T23:11:22.582Z,101810.59
2023-12-14T23:13:50.637Z,101805.13
2023-12-14T23:16:18.573Z,101809.00
2023-12-14T23:18:47.940Z,101811.13
2023-12-14T23:21:15.996Z,101807.06
2023-12-14T23:23:43.877Z,101813.47
2023-12-14T23:26:11.776Z,101818.03
2023-12-14T23:28:39.688Z,101812.59
2023-12-14T23:31:07.743Z,101813.97
2023-12-14T23:33:35.726Z,101815.38
2023-12-14T23:36:05.698Z,101819.97
2023-12-14T23:38:33.666Z,101826.38
2023-12-14T23:41:01.652Z,101832.81
2023-12-14T23:43:29.748Z,101829.16
2023-12-14T23:45:57.683Z,101830.53
2023-12-14T23:48:25.633Z,101833.72
2023-12-14T23:50:53.542Z,101836.97
2023-12-14T23:53:22.766Z,101838.34
2023-12-14T23:55:50.749Z,101844.28
2023-12-14T23:58:18.639Z,101840.16
